Cairo, Egypt
Current Conditions -  °F | °C
As of 4:30 PM on Friday 19 Dec 2014 (Local Time) from HECA Reporting Station
Few Clouds Few Clouds  
Wind Chill: 20°   Ceiling: Unl
Heat Index: 20°   Visibility: 6mi
Dew Point: 10°   Wind: 8mph
Humidity: 52%   Direction: 350°N
Pressure: 30.06"   Gusts: NA
Location:  30.06°N, 31.25°E
Report Text: HECA 191430Z 35007KT 9999 FEW025 20/10 Q1018 NOSIG
Loading
Personal Weather Stations






























Interactive Weather Map New forecast layout! Learn more

10-Day Weather Forecast

Advertisements
Track Severe Weather on mobile